Map

Track Data

SID SEASON NUMBER BASIN SUBBASIN NAME ISO_TIME NATURE LAT LON WMO_WIND WMO_PRES WMO_AGENCY TRACK_TYPE DIST2LAND LANDFALL IFLAG USA_AGENCY USA_ATCF_ID USA_LAT USA_LON USA_RECORD USA_STATUS USA_WIND USA_PRES USA_SSHS USA_R34_NE USA_R34_SE USA_R34_SW USA_R34_NW USA_R50_NE USA_R50_SE USA_R50_SW USA_R50_NW USA_R64_NE USA_R64_SE USA_R64_SW USA_R64_NW USA_POCI USA_ROCI USA_RMW USA_EYE TOKYO_LAT TOKYO_LON TOKYO_GRADE TOKYO_WIND TOKYO_PRES TOKYO_R50_DIR TOKYO_R50_LONG TOKYO_R50_SHORT TOKYO_R30_DIR TOKYO_R30_LONG TOKYO_R30_SHORT TOKYO_LAND CMA_LAT CMA_LON CMA_CAT CMA_WIND CMA_PRES HKO_LAT HKO_LON HKO_CAT HKO_WIND HKO_PRES NEWDELHI_LAT NEWDELHI_LON NEWDELHI_GRADE NEWDELHI_WIND NEWDELHI_PRES NEWDELHI_CI NEWDELHI_DP NEWDELHI_POCI REUNION_LAT REUNION_LON REUNION_TYPE REUNION_WIND REUNION_PRES REUNION_TNUM REUNION_CI REUNION_RMW REUNION_R34_NE REUNION_R34_SE REUNION_R34_SW REUNION_R34_NW REUNION_R50_NE REUNION_R50_SE REUNION_R50_SW REUNION_R50_NW REUNION_R64_NE REUNION_R64_SE REUNION_R64_SW REUNION_R64_NW BOM_LAT BOM_LON BOM_TYPE BOM_WIND BOM_PRES BOM_TNUM BOM_CI BOM_RMW BOM_R34_NE BOM_R34_SE BOM_R34_SW BOM_R34_NW BOM_R50_NE BOM_R50_SE BOM_R50_SW BOM_R50_NW BOM_R64_NE BOM_R64_SE BOM_R64_SW BOM_R64_NW BOM_ROCI BOM_POCI BOM_EYE BOM_POS_METHOD BOM_PRES_METHOD NADI_LAT NADI_LON NADI_CAT NADI_WIND NADI_PRES WELLINGTON_LAT WELLINGTON_LON WELLINGTON_WIND WELLINGTON_PRES DS824_LAT DS824_LON DS824_STAGE DS824_WIND DS824_PRES TD9636_LAT TD9636_LON TD9636_STAGE TD9636_WIND TD9636_PRES TD9635_LAT TD9635_LON TD9635_WIND TD9635_PRES TD9635_ROCI NEUMANN_LAT NEUMANN_LON NEUMANN_CLASS NEUMANN_WIND NEUMANN_PRES MLC_LAT MLC_LON MLC_CLASS MLC_WIND MLC_PRES USA_GUST BOM_GUST BOM_GUST_PER REUNION_GUST REUNION_GUST_PER USA_SEAHGT USA_SEARAD_NE USA_SEARAD_SE USA_SEARAD_SW USA_SEARAD_NW STORM_SPEED STORM_DIR
1939255N10145 1939 60 WP MM NOT_NAMED 1939-09-12 10:00:00 NR 10.3000 145.300 main 1396 1396 __________O___ -1 10.3000 145.300 2 7 279
1939255N10145 1939 60 WP MM NOT_NAMED 1939-09-12 12:00:00 NR 10.3362 145.070 main 1399 1399 __________P___ -1 10.3362 145.070 2 7 280
1939255N10145 1939 60 WP MM NOT_NAMED 1939-09-12 15:00:00 NR 10.3955 144.731 main 1416 1416 __________P___ -1 10.3955 144.731 2 7 281
1939255N10145 1939 60 WP MM NOT_NAMED 1939-09-12 18:00:00 NR 10.4682 144.404 main 1432 1432 __________P___ -1 10.4682 144.404 2 6 285
1939255N10145 1939 60 WP MM NOT_NAMED 1939-09-12 21:00:00 NR 10.5624 144.097 main 1449 1449 __________P___ -1 10.5624 144.097 2 6 288
1939255N10145 1939 60 WP MM NOT_NAMED 1939-09-12 22:00:00 NR 10.6000 144.000 main 1451 1451 __________O___ -1 10.6000 144.000 2 6 294
1939255N10145 1939 60 WP MM NOT_NAMED 1939-09-13 00:00:00 NR 10.6854 143.816 main 1467 1467 __________P___ -1 10.6854 143.816 2 6 298
1939255N10145 1939 60 WP MM NOT_NAMED 1939-09-13 03:00:00 NR 10.8325 143.559 main 1483 1485 __________P___ -1 10.8325 143.559 2 6 302
1939255N10145 1939 60 WP MM NOT_NAMED 1939-09-13 06:00:00 NR 10.9914 143.317 main 1512 1512 __________P___ -1 10.9914 143.317 2 6 304
1939255N10145 1939 60 WP MM NOT_NAMED 1939-09-13 09:00:00 NR 11.1496 143.080 main 1522 1529 __________P___ -1 11.1496 143.080 2 6 304
1939255N10145 1939 60 WP MM NOT_NAMED 1939-09-13 10:00:00 NR 11.2000 143.000 main 1529 1525 __________O___ -1 11.2000 143.000 2 6 300
1939255N10145 1939 60 WP MM NOT_NAMED 1939-09-13 12:00:00 NR 11.2864 142.836 main 1532 1528 __________P___ -1 11.2864 142.836 2 5 298
1939255N10145 1939 60 WP MM NOT_NAMED 1939-09-13 15:00:00 NR 11.4096 142.590 main 1535 1532 __________P___ -1 11.4096 142.590 2 5 297
1939255N10145 1939 60 WP MM NOT_NAMED 1939-09-13 18:00:00 NR 11.5308 142.341 main 1536 1536 __________P___ -1 11.5308 142.341 2 6 297
1939255N10145 1939 60 WP MM NOT_NAMED 1939-09-13 21:00:00 NR 11.6562 142.087 main 1551 1548 __________P___ -1 11.6562 142.087 2 6 297
1939255N10145 1939 60 WP MM NOT_NAMED 1939-09-13 22:00:00 NR 11.7000 142.000 main 1548 1545 __________O___ -1 11.7000 142.000 2 6 298
1939255N10145 1939 60 WP MM NOT_NAMED 1939-09-14 00:00:00 NR 11.7969 141.822 main 1553 1550 __________P___ -1 11.7969 141.822 2 6 299
1939255N10145 1939 60 WP MM NOT_NAMED 1939-09-14 03:00:00 NR 11.9486 141.550 main 1551 1557 __________P___ -1 11.9486 141.550 2 6 300
1939255N10145 1939 60 WP MM NOT_NAMED 1939-09-14 06:00:00 NR 12.1024 141.272 main 1563 1559 __________P___ -1 12.1024 141.272 2 6 299
1939255N10145 1939 60 WP MM NOT_NAMED 1939-09-14 09:00:00 NR 12.2521 140.993 main 1572 1568 __________P___ -1 12.2521 140.993 2 6 299
1939255N10145 1939 60 WP MM NOT_NAMED 1939-09-14 10:00:00 NR 12.3000 140.900 main 1568 1564 __________O___ -1 12.3000 140.900 2 6 299
1939255N10145 1939 60 WP MM NOT_NAMED 1939-09-14 12:00:00 NR 12.3915 140.732 main 1571 1567 __________P___ -1 12.3915 140.732 2 6 298
1939255N10145 1939 60 WP MM NOT_NAMED 1939-09-14 15:00:00 NR 12.5225 140.481 main 1574 1570 __________P___ -1 12.5225 140.481 2 6 297
1939255N10145 1939 60 WP MM NOT_NAMED 1939-09-14 18:00:00 NR 12.6462 140.214 main 1574 1548 __________P___ -1 12.6462 140.214 2 6 293
1939255N10145 1939 60 WP MM NOT_NAMED 1939-09-14 21:00:00 NR 12.7628 139.912 main 1548 1537 __________P___ -1 12.7628 139.912 2 6 291
1939255N10145 1939 60 WP MM NOT_NAMED 1939-09-14 22:00:00 NR 12.8000 139.800 main 1537 1515 __________O___ -1 12.8000 139.800 2 7 287
1939255N10145 1939 60 WP MM NOT_NAMED 1939-09-15 00:00:00 NR 12.8724 139.553 main 1517 1464 __________P___ -1 12.8724 139.553 2 8 285
1939255N10145 1939 60 WP MM NOT_NAMED 1939-09-15 03:00:00 NR 12.9747 139.146 main 1464 1423 __________P___ -1 12.9747 139.146 2 9 284
1939255N10145 1939 60 WP MM NOT_NAMED 1939-09-15 06:00:00 NR 13.0721 138.707 main 1423 1381 __________P___ -1 13.0721 138.707 2 9 283
1939255N10145 1939 60 WP MM NOT_NAMED 1939-09-15 09:00:00 NR 13.1679 138.252 main 1381 1360 __________P___ -1 13.1679 138.252 2 9 282
1939255N10145 1939 60 WP MM NOT_NAMED 1939-09-15 10:00:00 NR 13.2000 138.100 main 1360 1328 __________O___ -1 13.2000 138.100 2 9 281
1939255N10145 1939 60 WP MM NOT_NAMED 1939-09-15 12:00:00 NR 13.2589 137.790 main 1330 1276 __________P___ -1 13.2589 137.790 2 9 281
1939255N10145 1939 60 WP MM NOT_NAMED 1939-09-15 15:00:00 NR 13.3470 137.318 main 1276 1236 __________P___ -1 13.3470 137.318 2 9 281
1939255N10145 1939 60 WP MM NOT_NAMED 1939-09-15 18:00:00 NR 13.4431 136.858 main 1236 1188 __________P___ -1 13.4431 136.858 2 9 284
1939255N10145 1939 60 WP MM NOT_NAMED 1939-09-15 21:00:00 NR 13.5567 136.431 main 1188 1177 __________P___ -1 13.5567 136.431 2 8 286
1939255N10145 1939 60 WP MM NOT_NAMED 1939-09-15 22:00:00 NR 13.6000 136.300 main 1177 1159 __________O___ -1 13.6000 136.300 2 8 292
1939255N10145 1939 60 WP MM NOT_NAMED 1939-09-16 00:00:00 NR 13.7045 136.063 main 1159 1121 __________P___ -1 13.7045 136.063 2 7 298
1939255N10145 1939 60 WP MM NOT_NAMED 1939-09-16 03:00:00 NR 13.8805 135.746 main 1121 1102 __________P___ -1 13.8805 135.746 2 7 302
1939255N10145 1939 60 WP MM NOT_NAMED 1939-09-16 06:00:00 NR 14.0658 135.460 main 1103 1074 __________P___ -1 14.0658 135.460 2 7 304
1939255N10145 1939 60 WP MM NOT_NAMED 1939-09-16 09:00:00 NR 14.2446 135.189 main 1074 1065 __________P___ -1 14.2446 135.189 2 6 304
1939255N10145 1939 60 WP MM NOT_NAMED 1939-09-16 10:00:00 NR 14.3000 135.100 main 1065 1047 __________O___ -1 14.3000 135.100 2 6 301
1939255N10145 1939 60 WP MM NOT_NAMED 1939-09-16 12:00:00 NR 14.4022 134.920 main 1047 1018 __________P___ -1 14.4022 134.920 2 6 298
1939255N10145 1939 60 WP MM NOT_NAMED 1939-09-16 15:00:00 NR 14.5369 134.647 main 1018 999 __________P___ -1 14.5369 134.647 2 6 295
1939255N10145 1939 60 WP MM NOT_NAMED 1939-09-16 18:00:00 NR 14.6555 134.371 main 1002 971 __________P___ -1 14.6555 134.371 2 6 293
1939255N10145 1939 60 WP MM NOT_NAMED 1939-09-16 21:00:00 NR 14.7646 134.093 main 974 964 __________P___ -1 14.7646 134.093 2 6 292
1939255N10145 1939 60 WP MM NOT_NAMED 1939-09-16 22:00:00 NR 14.8000 134.000 main 964 __________O___ -1 14.8000 134.000 2 6 291

Digital Typhoon Data and Search

About IBTrACS Database

This database is a web-friendly format of International Best Track Archive for Climate Stewardship (IBTrACS), a global best track data archive curated by NOAA dating back to 1842.

Updated: 2021-11-26